Harborton, VA (23389)

3:20 PM EST on December 07, 2016 (GMT -0500)
Mount Prospect | | Change Station

Elev 30 ft 37.70 °N, 75.75 °W | Updated 4 seconds ago

Overcast
Overcast
48.7 °F
Feels Like 47 °F
N
4.0
Wind Variable Wind from WSW
Gusts 10.0 mph

Today
High -- | Low -- °F
--% Chance of Precip.
Yesterday
High -- | Low -- °F
Precip. -- in
Pressure 30.03 in
Visibility 10.0 miles
Clouds Overcast 2300 ft
Windchill 47 °F
Dew Point 44 °F
Humidity 83%
Rainfall 0.36 in
Snow Depth Not available.
7:05 AM 4:44 PM
First Quarter, 55% visible
METAR KMFV 072015Z AUTO 33007KT 300V010 10SM OVC023 10/06 A3003 RMK AO2 T00950057
Pressure 30.03 in
Visibility 10.0 miles
Clouds Overcast 2300 ft
Windchill 47 °F
Dew Point 44 °F
Humidity 83%
Rainfall 0.36 in
Snow Depth Not available.
7:05 AM 4:44 PM
First Quarter, 55% visible
METAR KMFV 072015Z AUTO 33007KT 300V010 10SM OVC023 10/06 A3003 RMK AO2 T00950057

10-Day Weather Forecast

Almanac

Astronomy

Dec. 07, 2016 Rise Set
Actual Time
Civil Twilight
Nautical Twilight
Astronomical Twilight
Moon
Length of Visible Light
Length of Day
Tomorrow will be .
, % of the Moon is Illuminated

Today's Extremes

State Highs State Lows

Community

WunderPhotos

Upload Photos

1,956,169 photos uploaded!

WunderBlog® & News

Nearby

Air Quality

  Air Quality AQ Index Pollutant
Not available.

Snow Depth

Station Depth Elevation

Earthquake Activity

City Distance Mag. Time & Date
Minimum magnitude displayed is 2.5.

Coastal Water Temperatures

Place Temperature

Stations

Nearby Weather Stations

Station Location Temp. Windchill Dew Point Humidity Wind Precip. Elev Updated Type
                   

Watches & Warnings

There are currently no watches in effect.